createdAt,value
2022-12-11T00:02:08.349Z,17.90
2022-12-11T00:04:35.284Z,16.65
2022-12-11T00:07:02.374Z,13.38
2022-12-11T00:09:29.722Z,10.90
2022-12-11T00:11:56.979Z,9.35
2022-12-11T00:14:23.849Z,9.60
2022-12-11T00:16:50.785Z,10.02
2022-12-11T00:19:18.407Z,9.43
2022-12-11T00:21:45.237Z,9.02
2022-12-11T00:24:12.148Z,8.98
2022-12-11T00:26:39.220Z,9.20
2022-12-11T00:29:08.195Z,8.23
2022-12-11T00:31:35.132Z,7.88
2022-12-11T00:34:02.937Z,7.50
2022-12-11T00:36:29.774Z,7.43
2022-12-11T00:38:56.591Z,7.47
2022-12-11T00:41:23.839Z,6.55
2022-12-11T00:43:50.954Z,6.50
2022-12-11T00:46:18.163Z,6.28
2022-12-11T00:48:46.208Z,6.35
2022-12-11T00:51:13.172Z,6.47
2022-12-11T00:53:40.055Z,7.88
2022-12-11T00:56:16.900Z,7.95
2022-12-11T00:58:44.320Z,8.50
2022-12-11T01:01:15.547Z,7.53
2022-12-11T01:03:42.582Z,7.25
2022-12-11T01:06:14.311Z,7.82
2022-12-11T01:08:41.373Z,7.40
2022-12-11T01:11:10.895Z,7.22
2022-12-11T01:13:38.978Z,8.30
2022-12-11T01:16:11.269Z,7.85
2022-12-11T01:18:38.410Z,8.45
2022-12-11T01:21:07.361Z,7.88
2022-12-11T01:26:09.840Z,8.02
2022-12-11T01:28:38.411Z,8.35
2022-12-11T01:31:13.301Z,8.73
2022-12-11T01:33:40.285Z,8.70
2022-12-11T01:36:16.906Z,9.00
2022-12-11T01:38:45.087Z,8.77
2022-12-11T01:41:12.834Z,8.73
2022-12-11T01:44:27.636Z,9.02
2022-12-11T01:46:54.705Z,9.43
2022-12-11T01:49:26.095Z,9.35
2022-12-11T01:51:55.426Z,10.20
2022-12-11T01:54:24.089Z,11.18
2022-12-11T01:56:52.940Z,11.50
2022-12-11T01:59:26.236Z,12.00
2022-12-11T02:02:01.387Z,11.95
2022-12-11T02:04:29.853Z,12.40
2022-12-11T02:06:56.827Z,11.60
2022-12-11T02:09:31.691Z,9.60
2022-12-11T02:12:16.187Z,9.75
2022-12-11T02:17:57.210Z,9.07
2022-12-11T02:20:34.746Z,8.63
2022-12-11T02:23:32.418Z,8.32
2022-12-11T02:26:03.895Z,8.32
2022-12-11T02:28:38.202Z,7.75
2022-12-11T02:31:22.405Z,7.53
2022-12-11T02:33:58.450Z,8.45
2022-12-11T02:36:29.087Z,8.68
2022-12-11T02:38:58.902Z,8.50
2022-12-11T02:41:28.801Z,8.75
2022-12-11T02:43:57.401Z,8.45
2022-12-11T02:46:25.431Z,8.25
2022-12-11T02:48:53.970Z,7.78
2022-12-11T02:51:26.935Z,8.25
2022-12-11T02:53:57.835Z,8.30
2022-12-11T02:56:32.681Z,8.48
2022-12-11T02:59:09.180Z,8.27
2022-12-11T03:01:36.108Z,8.18
2022-12-11T03:04:03.024Z,8.35
2022-12-11T03:06:36.434Z,9.75
2022-12-11T03:09:05.552Z,11.35
2022-12-11T03:11:32.450Z,11.30
2022-12-11T03:14:02.883Z,11.38
2022-12-11T03:16:38.994Z,11.85
2022-12-11T03:19:18.245Z,11.65
2022-12-11T03:22:20.898Z,12.35
2022-12-11T03:25:00.044Z,11.70
2022-12-11T03:27:48.971Z,11.57
2022-12-11T03:30:21.709Z,11.77
2022-12-11T03:33:02.010Z,10.75
2022-12-11T03:38:15.912Z,10.35
2022-12-11T03:40:46.304Z,10.55
2022-12-11T03:43:14.779Z,10.75
2022-12-11T03:45:43.046Z,9.95
2022-12-11T03:48:13.553Z,10.82
2022-12-11T03:50:41.760Z,10.88
2022-12-11T03:53:08.965Z,10.80
2022-12-11T03:55:37.743Z,11.20
2022-12-11T03:58:05.207Z,10.53
2022-12-11T04:00:32.298Z,10.82
2022-12-11T04:03:15.149Z,11.32
2022-12-11T04:05:44.546Z,10.95
2022-12-11T04:08:11.717Z,11.05
2022-12-11T04:10:39.408Z,11.15
2022-12-11T04:13:07.897Z,10.93
2022-12-11T04:15:35.127Z,11.07
2022-12-11T04:18:20.516Z,10.98
2022-12-11T04:21:06.599Z,10.65
2022-12-11T04:23:51.911Z,10.50
2022-12-11T04:26:21.077Z,10.32
2022-12-11T04:28:49.039Z,10.38
2022-12-11T04:31:18.810Z,10.25
2022-12-11T04:36:13.387Z,9.90
2022-12-11T04:38:40.846Z,10.02
2022-12-11T04:41:11.042Z,10.52
2022-12-11T04:43:38.451Z,9.80
2022-12-11T04:46:07.884Z,9.48
2022-12-11T04:48:36.283Z,9.45
2022-12-11T04:51:03.490Z,9.65
2022-12-11T04:53:31.047Z,9.18
2022-12-11T04:55:57.946Z,9.07
2022-12-11T04:58:25.506Z,9.48
2022-12-11T05:00:52.682Z,9.18
2022-12-11T05:03:19.798Z,9.27
2022-12-11T05:05:51.799Z,8.90
2022-12-11T05:08:22.553Z,8.95
2022-12-11T05:10:57.716Z,8.90
2022-12-11T05:13:25.095Z,8.98
2022-12-11T05:15:51.952Z,8.25
2022-12-11T05:18:18.974Z,9.40
2022-12-11T05:20:54.325Z,9.00
2022-12-11T05:23:21.987Z,9.00
2022-12-11T05:25:56.396Z,8.88
2022-12-11T05:28:27.859Z,9.32
2022-12-11T05:31:14.204Z,8.65
2022-12-11T05:33:41.589Z,8.32
2022-12-11T05:36:10.115Z,8.63
2022-12-11T05:38:36.990Z,8.40
2022-12-11T05:41:06.655Z,8.85
2022-12-11T05:46:13.732Z,6.93
2022-12-11T05:48:42.986Z,8.10
2022-12-11T05:51:10.992Z,8.20
2022-12-11T05:53:39.019Z,8.45
2022-12-11T05:56:12.451Z,8.45
2022-12-11T05:58:39.612Z,7.75
2022-12-11T06:01:37.305Z,8.27
2022-12-11T06:04:06.821Z,10.52
2022-12-11T06:06:36.427Z,10.57
2022-12-11T06:11:32.838Z,13.20
2022-12-11T06:14:02.121Z,12.48
2022-12-11T06:16:29.085Z,13.20
2022-12-11T06:18:58.443Z,14.63
2022-12-11T06:21:34.593Z,16.00
2022-12-11T06:24:03.883Z,12.70
2022-12-11T06:26:32.074Z,12.40
2022-12-11T06:28:59.226Z,13.30
2022-12-11T06:31:26.409Z,13.85
2022-12-11T06:33:53.353Z,15.23
2022-12-11T06:36:22.475Z,14.88
2022-12-11T06:38:50.321Z,14.57
2022-12-11T06:41:18.707Z,15.77
2022-12-11T06:43:45.635Z,15.55
2022-12-11T06:46:17.415Z,15.82
2022-12-11T06:48:44.842Z,15.45
2022-12-11T06:51:17.069Z,15.40
2022-12-11T06:53:45.371Z,15.35
2022-12-11T06:56:14.550Z,14.73
2022-12-11T06:58:42.525Z,15.68
2022-12-11T07:01:18.950Z,15.25
2022-12-11T07:03:46.438Z,15.27
2022-12-11T07:06:13.978Z,15.52
2022-12-11T07:08:41.227Z,14.32
2022-12-11T07:11:10.435Z,14.00
2022-12-11T07:13:37.443Z,14.20
2022-12-11T07:16:10.785Z,13.68
2022-12-11T07:18:40.597Z,13.55
2022-12-11T07:21:08.415Z,11.15
2022-12-11T07:23:36.127Z,11.82
2022-12-11T07:26:07.997Z,12.27
2022-12-11T07:28:35.874Z,12.50
2022-12-11T07:31:11.023Z,13.30
2022-12-11T07:33:37.942Z,12.73
2022-12-11T07:36:06.563Z,13.40
2022-12-11T07:38:34.288Z,12.25
2022-12-11T07:41:03.258Z,13.38
2022-12-11T07:43:30.117Z,13.32
2022-12-11T07:46:02.667Z,13.88
2022-12-11T07:48:29.755Z,13.57
2022-12-11T07:50:56.650Z,12.20
2022-12-11T07:53:23.784Z,11.93
2022-12-11T07:55:50.620Z,11.43
2022-12-11T07:58:17.523Z,10.85
2022-12-11T08:00:45.578Z,11.82
2022-12-11T08:03:12.364Z,11.68
2022-12-11T08:05:39.288Z,11.13
2022-12-11T08:08:06.132Z,10.73
2022-12-11T08:10:33.024Z,10.38
2022-12-11T08:13:00.612Z,11.07
2022-12-11T08:15:27.428Z,12.23
2022-12-11T08:17:54.570Z,11.77
2022-12-11T08:20:21.711Z,13.32
2022-12-11T08:22:48.542Z,12.95
2022-12-11T08:25:15.459Z,13.98
2022-12-11T08:27:42.319Z,12.88
2022-12-11T08:30:10.331Z,13.60
2022-12-11T08:32:37.212Z,16.42
2022-12-11T08:35:04.583Z,16.20
2022-12-11T08:37:36.659Z,16.45
2022-12-11T08:40:04.176Z,14.85
2022-12-11T08:42:31.040Z,12.32
2022-12-11T08:44:58.382Z,12.35
2022-12-11T08:47:25.321Z,13.05
2022-12-11T08:49:52.846Z,12.13
2022-12-11T08:52:19.942Z,11.38
2022-12-11T08:54:46.869Z,11.98
2022-12-11T08:57:13.729Z,10.38
2022-12-11T08:59:49.646Z,9.90
2022-12-11T09:02:17.613Z,10.25
2022-12-11T09:04:44.516Z,8.75
2022-12-11T09:07:12.403Z,8.82
2022-12-11T09:09:39.296Z,9.10
2022-12-11T09:12:06.319Z,8.30
2022-12-11T09:14:33.275Z,7.68
2022-12-11T09:17:00.185Z,8.00
2022-12-11T09:19:32.062Z,7.38
2022-12-11T09:21:59.475Z,7.18
2022-12-11T09:24:26.407Z,7.80
2022-12-11T09:26:54.702Z,6.60
2022-12-11T09:29:28.753Z,7.85
2022-12-11T09:31:56.072Z,7.80
2022-12-11T09:34:28.853Z,7.32
2022-12-11T09:36:59.651Z,7.90
2022-12-11T09:39:26.627Z,8.27
2022-12-11T09:42:05.977Z,8.57
2022-12-11T09:44:39.970Z,9.70
2022-12-11T09:47:59.554Z,9.48
2022-12-11T09:50:31.792Z,8.85
2022-12-11T09:53:23.751Z,8.80
2022-12-11T09:56:00.811Z,8.98
2022-12-11T09:59:01.638Z,9.43
2022-12-11T10:01:34.783Z,8.50
2022-12-11T10:04:10.692Z,8.68
2022-12-11T10:07:02.318Z,9.02
2022-12-11T10:09:46.919Z,7.35
2022-12-11T10:12:35.191Z,8.05
2022-12-11T10:15:25.301Z,9.35
2022-12-11T10:17:59.909Z,10.80
2022-12-11T10:20:36.369Z,9.50
2022-12-11T10:23:06.616Z,9.40
2022-12-11T10:25:43.451Z,9.02
2022-12-11T10:28:16.216Z,9.63
2022-12-11T10:31:04.771Z,8.52
2022-12-11T10:34:04.331Z,8.80
2022-12-11T10:36:39.994Z,9.93
2022-12-11T10:39:21.144Z,9.65
2022-12-11T10:41:54.083Z,10.80
2022-12-11T10:44:26.692Z,11.05
2022-12-11T10:47:10.217Z,11.07
2022-12-11T10:49:39.254Z,10.40
2022-12-11T10:52:12.847Z,10.63
2022-12-11T10:54:47.109Z,9.48
2022-12-11T10:57:15.431Z,7.90
2022-12-11T10:59:51.036Z,6.10
2022-12-11T11:02:29.218Z,6.88
2022-12-11T11:04:58.501Z,6.60
2022-12-11T11:07:49.339Z,6.13
2022-12-11T11:10:18.381Z,6.70
2022-12-11T11:13:02.409Z,6.95
2022-12-11T11:15:31.112Z,6.57
2022-12-11T11:18:12.732Z,7.20
2022-12-11T11:20:47.450Z,7.93
2022-12-11T11:23:16.604Z,8.63
2022-12-11T11:26:01.519Z,9.13
2022-12-11T11:28:38.305Z,8.80
2022-12-11T11:31:13.142Z,10.05
2022-12-11T11:34:07.512Z,9.45
2022-12-11T11:36:38.817Z,9.32
2022-12-11T11:39:41.137Z,9.00
2022-12-11T11:42:19.126Z,9.15
2022-12-11T11:45:17.572Z,9.63
2022-12-11T11:48:30.017Z,9.05
2022-12-11T11:50:58.580Z,8.55
2022-12-11T11:53:37.211Z,9.15
2022-12-11T11:56:11.163Z,10.00
2022-12-11T11:58:52.163Z,10.45
2022-12-11T12:01:20.945Z,10.32
2022-12-11T12:03:52.418Z,9.43
2022-12-11T12:06:34.611Z,9.93
2022-12-11T12:09:33.327Z,10.57
2022-12-11T12:12:37.484Z,10.13
2022-12-11T12:15:27.374Z,9.48
2022-12-11T12:18:15.175Z,9.15
2022-12-11T12:20:42.828Z,9.27
2022-12-11T12:24:04.937Z,8.90
2022-12-11T12:26:36.733Z,8.38
2022-12-11T12:29:28.878Z,9.32
2022-12-11T12:32:21.622Z,8.63
2022-12-11T12:35:09.544Z,8.07
2022-12-11T12:37:55.293Z,8.25
2022-12-11T12:40:59.682Z,7.60
2022-12-11T12:43:44.875Z,7.43
2022-12-11T12:46:36.220Z,6.80
2022-12-11T12:49:05.539Z,6.60
2022-12-11T12:51:33.391Z,7.60
2022-12-11T12:54:09.100Z,7.13
2022-12-11T12:56:52.581Z,6.85
2022-12-11T12:59:26.124Z,6.57
2022-12-11T13:02:03.221Z,6.40
2022-12-11T13:04:55.837Z,5.78
2022-12-11T13:07:31.453Z,5.50
2022-12-11T13:10:07.144Z,5.07
2022-12-11T13:12:56.042Z,4.60
2022-12-11T13:15:35.049Z,4.43
2022-12-11T13:18:13.756Z,4.80
2022-12-11T13:20:51.997Z,5.82
2022-12-11T13:23:29.313Z,6.15
2022-12-11T13:26:04.976Z,5.35
2022-12-11T13:28:55.434Z,5.50
2022-12-11T13:31:44.720Z,4.82
2022-12-11T13:34:24.120Z,5.10
2022-12-11T13:36:59.206Z,6.32
2022-12-11T13:39:38.128Z,6.20
2022-12-11T13:42:11.820Z,6.68
2022-12-11T13:44:42.546Z,6.78
2022-12-11T13:47:14.900Z,6.32
2022-12-11T13:49:45.957Z,5.78
2022-12-11T13:52:20.469Z,5.75
2022-12-11T13:54:50.663Z,5.30
2022-12-11T13:57:23.586Z,6.05
2022-12-11T13:59:55.439Z,5.75
2022-12-11T14:02:42.908Z,6.85
2022-12-11T14:05:13.936Z,6.82
2022-12-11T14:07:50.196Z,7.75
2022-12-11T14:10:35.818Z,7.07
2022-12-11T14:13:06.650Z,6.00
2022-12-11T14:15:36.454Z,5.47
2022-12-11T14:20:34.978Z,5.45
2022-12-11T14:23:29.951Z,6.22
2022-12-11T14:26:02.064Z,6.03
2022-12-11T14:28:35.676Z,4.93
2022-12-11T14:31:05.151Z,4.78
2022-12-11T14:33:38.849Z,5.10
2022-12-11T14:36:07.707Z,5.43
2022-12-11T14:53:46.787Z,6.68
2022-12-11T14:56:22.889Z,6.30
2022-12-11T14:58:56.809Z,6.43
2022-12-11T15:01:30.203Z,6.90
2022-12-11T15:04:19.963Z,7.03
2022-12-11T15:06:48.801Z,8.47
2022-12-11T15:09:26.345Z,8.17
2022-12-11T15:11:56.208Z,8.32
2022-12-11T15:16:53.965Z,6.97
2022-12-11T15:19:30.824Z,7.25
2022-12-11T15:34:00.547Z,8.77
2022-12-11T15:42:17.873Z,9.27
2022-12-11T16:12:40.699Z,20.95
2022-12-11T16:59:29.037Z,6.97
2022-12-11T17:02:08.981Z,6.97
2022-12-11T17:08:28.059Z,7.32
2022-12-11T17:48:43.307Z,8.82
2022-12-11T17:51:13.252Z,8.65
2022-12-11T17:53:41.003Z,7.35
2022-12-11T17:56:10.104Z,8.55
2022-12-11T17:58:38.482Z,8.23
2022-12-11T18:01:13.590Z,8.63
2022-12-11T18:03:42.942Z,8.23
2022-12-11T18:06:13.636Z,7.83
2022-12-11T18:08:42.138Z,8.18
2022-12-11T18:11:12.638Z,8.50
2022-12-11T18:13:40.032Z,8.43
2022-12-11T18:16:30.276Z,8.32
2022-12-11T18:19:05.983Z,8.43
2022-12-11T18:21:35.411Z,8.07
2022-12-11T18:24:03.208Z,7.85
2022-12-11T18:26:33.385Z,7.47
2022-12-11T18:29:00.509Z,7.72
2022-12-11T18:31:27.432Z,7.70
2022-12-11T18:33:54.482Z,8.52
2022-12-11T18:36:22.108Z,7.88
2022-12-11T18:38:49.818Z,8.30
2022-12-11T18:41:18.363Z,7.72
2022-12-11T18:43:47.446Z,8.60
2022-12-11T18:46:17.783Z,8.85
2022-12-11T18:48:46.077Z,8.10
2022-12-11T18:51:19.306Z,9.15
2022-12-11T18:53:46.370Z,9.15
2022-12-11T18:56:17.229Z,8.82
2022-12-11T18:58:45.160Z,8.13
2022-12-11T19:01:22.356Z,8.25
2022-12-11T19:03:51.352Z,12.85
2022-12-11T19:06:23.924Z,8.00
2022-12-11T19:08:51.803Z,7.97
2022-12-11T19:11:22.125Z,8.57
2022-12-11T19:13:50.147Z,8.48
2022-12-11T19:16:30.851Z,8.23
2022-12-11T19:19:01.672Z,6.50
2022-12-11T19:21:39.749Z,6.20
2022-12-11T19:24:20.977Z,6.15
2022-12-11T19:26:53.875Z,6.18
2022-12-11T19:29:25.259Z,5.72
2022-12-11T19:31:59.031Z,5.80
2022-12-11T19:34:30.221Z,6.38
2022-12-11T19:37:11.224Z,6.40
2022-12-11T19:39:43.904Z,6.88
2022-12-11T19:42:36.729Z,6.88
2022-12-11T19:45:21.047Z,7.72
2022-12-11T19:48:05.887Z,6.65
2022-12-11T19:50:50.650Z,7.43
2022-12-11T19:56:29.903Z,7.80
2022-12-11T20:11:49.044Z,8.00
2022-12-11T20:14:28.448Z,7.82
2022-12-11T20:17:12.365Z,8.18
2022-12-11T20:19:46.862Z,8.95
2022-12-11T20:22:18.037Z,8.57
2022-12-11T20:24:47.975Z,8.63
2022-12-11T20:27:20.671Z,8.65
2022-12-11T20:29:58.570Z,8.15
2022-12-11T20:32:32.448Z,7.78
2022-12-11T20:35:01.054Z,7.95
2022-12-11T20:37:30.670Z,8.30
2022-12-11T20:42:51.279Z,7.53
2022-12-11T20:45:22.790Z,6.75
2022-12-11T20:47:58.200Z,7.38
2022-12-11T20:50:28.278Z,6.97
2022-12-11T20:53:01.518Z,6.30
2022-12-11T20:55:59.589Z,6.68
2022-12-11T20:58:39.990Z,6.10
2022-12-11T21:01:29.138Z,5.72
2022-12-11T21:04:10.470Z,5.38
2022-12-11T21:06:50.647Z,5.90
2022-12-11T21:09:47.576Z,5.70
2022-12-11T21:12:45.163Z,5.72
2022-12-11T21:15:35.597Z,5.80
2022-12-11T21:18:15.373Z,6.03
2022-12-11T21:20:48.241Z,5.72
2022-12-11T21:23:18.578Z,5.20
2022-12-11T21:26:07.771Z,6.15
2022-12-11T21:28:46.555Z,5.97
2022-12-11T21:31:16.712Z,6.57
2022-12-11T21:33:44.950Z,6.82
2022-12-11T21:36:14.869Z,6.63
2022-12-11T21:38:43.671Z,6.22
2022-12-11T21:41:24.087Z,6.10
2022-12-11T21:44:56.530Z,6.32
2022-12-11T21:46:40.542Z,6.57
2022-12-11T21:49:08.540Z,6.40
2022-12-11T21:51:43.916Z,5.88
2022-12-11T21:54:15.747Z,5.72
2022-12-11T21:56:43.090Z,5.57
2022-12-11T21:59:10.637Z,5.70
2022-12-11T22:01:42.289Z,5.05
2022-12-11T22:04:10.818Z,4.80
2022-12-11T22:06:39.944Z,5.43
2022-12-11T22:09:07.145Z,5.35
2022-12-11T22:11:35.226Z,5.35
2022-12-11T22:14:03.010Z,5.40
2022-12-11T22:16:34.229Z,5.50
2022-12-11T22:19:01.672Z,5.72
2022-12-11T22:21:28.836Z,5.60
2022-12-11T22:23:56.602Z,5.57
2022-12-11T22:26:26.735Z,5.88
2022-12-11T22:28:55.479Z,5.82
2022-12-11T22:31:24.642Z,7.15
2022-12-11T22:33:55.743Z,6.30
2022-12-11T22:36:25.414Z,6.07
2022-12-11T22:38:53.063Z,5.95
2022-12-11T22:41:26.603Z,7.68
2022-12-11T22:43:54.537Z,9.13
2022-12-11T22:46:24.742Z,8.60
2022-12-11T22:48:52.435Z,7.10
2022-12-11T22:51:20.374Z,6.20
2022-12-11T22:53:47.951Z,5.72
2022-12-11T22:56:15.060Z,5.85
2022-12-11T22:58:42.847Z,5.53
2022-12-11T23:01:12.619Z,5.13
2022-12-11T23:03:40.055Z,5.32
2022-12-11T23:06:08.473Z,5.47
2022-12-11T23:08:36.563Z,5.03
2022-12-11T23:11:14.202Z,4.90
2022-12-11T23:13:41.734Z,5.10
2022-12-11T23:16:09.932Z,5.35
2022-12-11T23:18:37.098Z,5.20
2022-12-11T23:21:04.360Z,5.13
2022-12-11T23:23:31.583Z,5.00
2022-12-11T23:25:59.188Z,5.00
2022-12-11T23:28:26.350Z,5.18
2022-12-11T23:30:53.372Z,5.00
2022-12-11T23:33:20.350Z,5.45
2022-12-11T23:35:47.510Z,5.45
2022-12-11T23:38:15.999Z,5.35
2022-12-11T23:40:43.065Z,4.70
2022-12-11T23:43:10.366Z,5.32
2022-12-11T23:45:37.367Z,5.95
2022-12-11T23:48:04.747Z,6.38
2022-12-11T23:50:32.957Z,6.38
2022-12-11T23:53:00.576Z,6.47
2022-12-11T23:55:27.881Z,5.88
2022-12-11T23:57:56.224Z,6.07
